Noble, Nebraska
Current Conditions -  °F | °C
As of 1:53 PM on Saturday 20 Dec 2014 (Local Time) from KBBW Reporting Station
Clear Clear  
Wind Chill: 38°   Ceiling: Unl
Heat Index: 42°   Visibility: 10mi
Dew Point: 32°   Wind: 7mph
Humidity: 67%   Direction: 200°SSW
Pressure: 29.94"   Gusts: NA
Location:  41.579°N, 98.9733°W
Report Text: KBBW 201953Z AUTO 20006KT 10SM CLR 06/00 A2994 RMK AO2 SLP158 T00560000
Loading
Personal Weather Stations






























Interactive Weather Map New forecast layout! Learn more

10-Day Weather Forecast

Advertisements
Track Severe Weather on mobile